sensor_id;sensor_type;location;lat;lon;timestamp;temperature;humidity
22065;DHT22;11197;53.110;8.468;2022-11-04T00:01:58;12.20;99.90
22065;DHT22;11197;53.110;8.468;2022-11-04T00:04:27;12.30;99.90
22065;DHT22;11197;53.110;8.468;2022-11-04T00:06:53;12.30;99.90
22065;DHT22;11197;53.110;8.468;2022-11-04T00:09:23;12.30;99.90
22065;DHT22;11197;53.110;8.468;2022-11-04T00:11:49;12.40;99.90
22065;DHT22;11197;53.110;8.468;2022-11-04T00:14:34;12.30;99.90
22065;DHT22;11197;53.110;8.468;2022-11-04T00:17:01;12.30;99.90
22065;DHT22;11197;53.110;8.468;2022-11-04T00:19:53;12.30;99.90
22065;DHT22;11197;53.110;8.468;2022-11-04T00:22:39;12.30;99.90
22065;DHT22;11197;53.110;8.468;2022-11-04T00:25:25;12.30;99.90
22065;DHT22;11197;53.110;8.468;2022-11-04T00:28:17;12.20;99.90
22065;DHT22;11197;53.110;8.468;2022-11-04T00:31:04;12.20;99.90
22065;DHT22;11197;53.110;8.468;2022-11-04T00:33:50;12.20;99.90
22065;DHT22;11197;53.110;8.468;2022-11-04T00:36:16;12.30;99.90
22065;DHT22;11197;53.110;8.468;2022-11-04T00:38:43;12.30;99.90
22065;DHT22;11197;53.110;8.468;2022-11-04T00:41:09;12.30;99.90
22065;DHT22;11197;53.110;8.468;2022-11-04T00:44:02;12.30;99.90
22065;DHT22;11197;53.110;8.468;2022-11-04T00:46:30;12.30;99.90
22065;DHT22;11197;53.110;8.468;2022-11-04T00:48:56;12.30;99.90
22065;DHT22;11197;53.110;8.468;2022-11-04T00:51:23;12.30;99.90
22065;DHT22;11197;53.110;8.468;2022-11-04T00:53:49;12.30;99.90
22065;DHT22;11197;53.110;8.468;2022-11-04T00:56:15;12.20;99.90
22065;DHT22;11197;53.110;8.468;2022-11-04T00:58:41;12.20;99.90
22065;DHT22;11197;53.110;8.468;2022-11-04T01:01:11;12.20;99.90
22065;DHT22;11197;53.110;8.468;2022-11-04T01:03:38;12.30;99.90
22065;DHT22;11197;53.110;8.468;2022-11-04T01:06:04;12.30;99.90
22065;DHT22;11197;53.110;8.468;2022-11-04T01:08:30;12.30;99.90
22065;DHT22;11197;53.110;8.468;2022-11-04T01:10:59;12.30;99.90
22065;DHT22;11197;53.110;8.468;2022-11-04T01:13:25;12.20;99.90
22065;DHT22;11197;53.110;8.468;2022-11-04T01:15:51;12.20;99.90
22065;DHT22;11197;53.110;8.468;2022-11-04T01:18:16;12.30;99.90
22065;DHT22;11197;53.110;8.468;2022-11-04T01:20:42;12.20;99.90
22065;DHT22;11197;53.110;8.468;2022-11-04T01:23:08;12.20;99.90
22065;DHT22;11197;53.110;8.468;2022-11-04T01:25:37;12.20;99.90
22065;DHT22;11197;53.110;8.468;2022-11-04T01:28:03;12.20;99.90
22065;DHT22;11197;53.110;8.468;2022-11-04T01:30:29;12.20;99.90
22065;DHT22;11197;53.110;8.468;2022-11-04T01:32:55;12.30;99.90
22065;DHT22;11197;53.110;8.468;2022-11-04T01:35:21;12.20;99.90
22065;DHT22;11197;53.110;8.468;2022-11-04T01:37:47;12.20;99.90
22065;DHT22;11197;53.110;8.468;2022-11-04T01:40:13;12.20;99.90
22065;DHT22;11197;53.110;8.468;2022-11-04T01:42:39;12.20;99.90
22065;DHT22;11197;53.110;8.468;2022-11-04T01:45:12;12.20;99.90
22065;DHT22;11197;53.110;8.468;2022-11-04T01:47:42;12.20;99.90
22065;DHT22;11197;53.110;8.468;2022-11-04T01:52:56;12.20;99.90
22065;DHT22;11197;53.110;8.468;2022-11-04T01:55:28;12.20;99.90
22065;DHT22;11197;53.110;8.468;2022-11-04T01:58:02;12.20;99.90
22065;DHT22;11197;53.110;8.468;2022-11-04T02:00:29;12.20;99.90
22065;DHT22;11197;53.110;8.468;2022-11-04T02:03:06;12.20;99.90
22065;DHT22;11197;53.110;8.468;2022-11-04T02:05:33;12.20;99.90
22065;DHT22;11197;53.110;8.468;2022-11-04T02:08:02;12.20;99.90
22065;DHT22;11197;53.110;8.468;2022-11-04T02:10:29;12.20;99.90
22065;DHT22;11197;53.110;8.468;2022-11-04T02:13:00;12.20;99.90
22065;DHT22;11197;53.110;8.468;2022-11-04T02:15:34;12.20;99.90
22065;DHT22;11197;53.110;8.468;2022-11-04T02:42:57;12.00;99.90
22065;DHT22;11197;53.110;8.468;2022-11-04T02:45:46;12.00;99.90
22065;DHT22;11197;53.110;8.468;2022-11-04T02:48:23;12.00;99.90
22065;DHT22;11197;53.110;8.468;2022-11-04T02:50:58;11.90;99.90
22065;DHT22;11197;53.110;8.468;2022-11-04T02:54:04;11.80;99.90
22065;DHT22;11197;53.110;8.468;2022-11-04T02:56:22;11.90;99.90
22065;DHT22;11197;53.110;8.468;2022-11-04T02:58:55;11.90;99.90
22065;DHT22;11197;53.110;8.468;2022-11-04T03:01:22;11.80;99.90
22065;DHT22;11197;53.110;8.468;2022-11-04T03:03:56;11.80;99.90
22065;DHT22;11197;53.110;8.468;2022-11-04T03:06:24;11.80;99.90
22065;DHT22;11197;53.110;8.468;2022-11-04T03:08:53;11.80;99.90
22065;DHT22;11197;53.110;8.468;2022-11-04T03:11:24;11.80;99.90
22065;DHT22;11197;53.110;8.468;2022-11-04T03:14:03;11.70;99.90
22065;DHT22;11197;53.110;8.468;2022-11-04T03:16:43;11.70;99.90
22065;DHT22;11197;53.110;8.468;2022-11-04T03:19:16;11.70;99.90
22065;DHT22;11197;53.110;8.468;2022-11-04T03:22:01;11.60;99.90
22065;DHT22;11197;53.110;8.468;2022-11-04T03:24:30;11.60;99.90
22065;DHT22;11197;53.110;8.468;2022-11-04T03:29:43;11.60;99.90
22065;DHT22;11197;53.110;8.468;2022-11-04T03:32:25;11.60;99.90
22065;DHT22;11197;53.110;8.468;2022-11-04T03:34:53;11.60;99.90
22065;DHT22;11197;53.110;8.468;2022-11-04T03:37:19;11.50;99.90
22065;DHT22;11197;53.110;8.468;2022-11-04T03:39:45;11.50;99.90
22065;DHT22;11197;53.110;8.468;2022-11-04T03:42:12;11.50;99.90
22065;DHT22;11197;53.110;8.468;2022-11-04T03:44:51;11.50;99.90
22065;DHT22;11197;53.110;8.468;2022-11-04T03:47:20;11.50;99.90
22065;DHT22;11197;53.110;8.468;2022-11-04T03:49:47;11.50;99.90
22065;DHT22;11197;53.110;8.468;2022-11-04T03:52:15;11.50;99.90
22065;DHT22;11197;53.110;8.468;2022-11-04T03:54:42;11.50;99.90
22065;DHT22;11197;53.110;8.468;2022-11-04T04:00:15;11.50;99.90
22065;DHT22;11197;53.110;8.468;2022-11-04T04:13:54;11.40;99.90
22065;DHT22;11197;53.110;8.468;2022-11-04T04:16:45;11.50;99.90
22065;DHT22;11197;53.110;8.468;2022-11-04T04:19:12;11.50;99.90
22065;DHT22;11197;53.110;8.468;2022-11-04T04:22:00;11.50;99.90
22065;DHT22;11197;53.110;8.468;2022-11-04T04:24:34;11.50;99.90
22065;DHT22;11197;53.110;8.468;2022-11-04T04:27:20;11.50;99.90
22065;DHT22;11197;53.110;8.468;2022-11-04T04:30:09;11.50;99.90
22065;DHT22;11197;53.110;8.468;2022-11-04T04:32:40;11.50;99.90
22065;DHT22;11197;53.110;8.468;2022-11-04T04:35:08;11.40;99.90
22065;DHT22;11197;53.110;8.468;2022-11-04T04:37:55;11.40;99.90
22065;DHT22;11197;53.110;8.468;2022-11-04T04:40:52;11.40;99.90
22065;DHT22;11197;53.110;8.468;2022-11-04T04:43:38;11.40;99.90
22065;DHT22;11197;53.110;8.468;2022-11-04T04:46:27;11.40;99.90
22065;DHT22;11197;53.110;8.468;2022-11-04T04:48:54;11.40;99.90
22065;DHT22;11197;53.110;8.468;2022-11-04T04:51:21;11.40;99.90
22065;DHT22;11197;53.110;8.468;2022-11-04T04:53:47;11.40;99.90
22065;DHT22;11197;53.110;8.468;2022-11-04T04:56:13;11.40;99.90
22065;DHT22;11197;53.110;8.468;2022-11-04T04:58:38;11.40;99.90
22065;DHT22;11197;53.110;8.468;2022-11-04T05:01:04;11.40;99.90
22065;DHT22;11197;53.110;8.468;2022-11-04T05:03:30;11.40;99.90
22065;DHT22;11197;53.110;8.468;2022-11-04T05:05:58;11.30;99.90
22065;DHT22;11197;53.110;8.468;2022-11-04T05:08:24;11.40;99.90
22065;DHT22;11197;53.110;8.468;2022-11-04T05:10:50;11.40;99.90
22065;DHT22;11197;53.110;8.468;2022-11-04T05:13:16;11.40;99.90
22065;DHT22;11197;53.110;8.468;2022-11-04T05:15:51;11.40;99.90
22065;DHT22;11197;53.110;8.468;2022-11-04T05:18:17;11.40;99.90
22065;DHT22;11197;53.110;8.468;2022-11-04T05:20:43;11.40;99.90
22065;DHT22;11197;53.110;8.468;2022-11-04T05:23:08;11.40;99.90
22065;DHT22;11197;53.110;8.468;2022-11-04T05:25:37;11.40;99.90
22065;DHT22;11197;53.110;8.468;2022-11-04T05:28:05;11.40;99.90
22065;DHT22;11197;53.110;8.468;2022-11-04T05:30:31;11.40;99.90
22065;DHT22;11197;53.110;8.468;2022-11-04T05:32:57;11.40;99.90
22065;DHT22;11197;53.110;8.468;2022-11-04T05:35:23;11.40;99.90
22065;DHT22;11197;53.110;8.468;2022-11-04T05:37:48;11.40;99.90
22065;DHT22;11197;53.110;8.468;2022-11-04T05:40:14;11.40;99.90
22065;DHT22;11197;53.110;8.468;2022-11-04T05:42:40;11.30;99.90
22065;DHT22;11197;53.110;8.468;2022-11-04T05:45:07;11.40;99.90
22065;DHT22;11197;53.110;8.468;2022-11-04T05:47:33;11.40;99.90
22065;DHT22;11197;53.110;8.468;2022-11-04T05:49:59;11.40;99.90
22065;DHT22;11197;53.110;8.468;2022-11-04T05:52:24;11.30;99.90
22065;DHT22;11197;53.110;8.468;2022-11-04T05:54:50;11.40;99.90
22065;DHT22;11197;53.110;8.468;2022-11-04T05:57:16;11.30;99.90
22065;DHT22;11197;53.110;8.468;2022-11-04T05:59:42;11.30;99.90
22065;DHT22;11197;53.110;8.468;2022-11-04T06:02:08;11.30;99.90
22065;DHT22;11197;53.110;8.468;2022-11-04T06:04:34;11.30;99.90
22065;DHT22;11197;53.110;8.468;2022-11-04T06:07:01;11.30;99.90
22065;DHT22;11197;53.110;8.468;2022-11-04T06:09:27;11.30;99.90
22065;DHT22;11197;53.110;8.468;2022-11-04T06:12:10;11.40;99.90
22065;DHT22;11197;53.110;8.468;2022-11-04T06:14:36;11.30;99.90
22065;DHT22;11197;53.110;8.468;2022-11-04T06:17:02;11.30;99.90
22065;DHT22;11197;53.110;8.468;2022-11-04T06:19:28;11.30;99.90
22065;DHT22;11197;53.110;8.468;2022-11-04T06:21:55;11.30;99.90
22065;DHT22;11197;53.110;8.468;2022-11-04T06:24:22;11.30;99.90
22065;DHT22;11197;53.110;8.468;2022-11-04T06:26:48;11.30;99.90
22065;DHT22;11197;53.110;8.468;2022-11-04T06:29:15;11.30;99.90
22065;DHT22;11197;53.110;8.468;2022-11-04T06:31:40;11.30;99.90
22065;DHT22;11197;53.110;8.468;2022-11-04T06:34:06;11.30;99.90
22065;DHT22;11197;53.110;8.468;2022-11-04T06:36:32;11.30;99.90
22065;DHT22;11197;53.110;8.468;2022-11-04T06:38:58;11.30;99.90
22065;DHT22;11197;53.110;8.468;2022-11-04T06:41:24;11.30;99.90
22065;DHT22;11197;53.110;8.468;2022-11-04T06:43:50;11.20;99.90
22065;DHT22;11197;53.110;8.468;2022-11-04T06:46:36;11.20;99.90
22065;DHT22;11197;53.110;8.468;2022-11-04T06:49:06;11.30;99.90
22065;DHT22;11197;53.110;8.468;2022-11-04T06:51:34;11.30;99.90
22065;DHT22;11197;53.110;8.468;2022-11-04T06:54:01;11.20;99.90
22065;DHT22;11197;53.110;8.468;2022-11-04T06:56:27;11.20;99.90
22065;DHT22;11197;53.110;8.468;2022-11-04T06:58:54;11.20;99.90
22065;DHT22;11197;53.110;8.468;2022-11-04T07:01:22;11.20;99.90
22065;DHT22;11197;53.110;8.468;2022-11-04T07:03:53;11.20;99.90
22065;DHT22;11197;53.110;8.468;2022-11-04T07:06:20;11.20;99.90
22065;DHT22;11197;53.110;8.468;2022-11-04T07:08:47;11.20;99.90
22065;DHT22;11197;53.110;8.468;2022-11-04T07:11:15;11.20;99.90
22065;DHT22;11197;53.110;8.468;2022-11-04T07:13:41;11.20;99.90
22065;DHT22;11197;53.110;8.468;2022-11-04T07:16:08;11.20;99.90
22065;DHT22;11197;53.110;8.468;2022-11-04T07:18:33;11.20;99.90
22065;DHT22;11197;53.110;8.468;2022-11-04T07:21:00;11.20;99.90
22065;DHT22;11197;53.110;8.468;2022-11-04T07:23:26;11.20;99.90
22065;DHT22;11197;53.110;8.468;2022-11-04T07:25:52;11.20;99.90
22065;DHT22;11197;53.110;8.468;2022-11-04T07:28:20;11.40;99.90
22065;DHT22;11197;53.110;8.468;2022-11-04T07:30:46;11.50;99.90
22065;DHT22;11197;53.110;8.468;2022-11-04T07:33:12;11.50;99.90
22065;DHT22;11197;53.110;8.468;2022-11-04T07:35:38;11.50;99.90
22065;DHT22;11197;53.110;8.468;2022-11-04T07:38:04;11.40;99.90
22065;DHT22;11197;53.110;8.468;2022-11-04T07:40:31;11.40;99.90
22065;DHT22;11197;53.110;8.468;2022-11-04T07:43:00;11.30;99.90
22065;DHT22;11197;53.110;8.468;2022-11-04T07:45:35;11.30;99.90
22065;DHT22;11197;53.110;8.468;2022-11-04T07:48:00;11.30;99.90
22065;DHT22;11197;53.110;8.468;2022-11-04T07:50:26;11.30;99.90
22065;DHT22;11197;53.110;8.468;2022-11-04T07:52:52;11.30;99.90
22065;DHT22;11197;53.110;8.468;2022-11-04T07:55:19;11.30;99.90
22065;DHT22;11197;53.110;8.468;2022-11-04T07:57:45;11.30;99.90
22065;DHT22;11197;53.110;8.468;2022-11-04T08:00:12;11.30;99.90
22065;DHT22;11197;53.110;8.468;2022-11-04T08:02:43;11.20;99.90
22065;DHT22;11197;53.110;8.468;2022-11-04T08:05:12;11.30;99.90
22065;DHT22;11197;53.110;8.468;2022-11-04T08:07:38;11.20;99.90
22065;DHT22;11197;53.110;8.468;2022-11-04T08:10:04;11.30;99.90
22065;DHT22;11197;53.110;8.468;2022-11-04T08:12:30;11.30;99.90
22065;DHT22;11197;53.110;8.468;2022-11-04T08:15:00;11.30;99.90
22065;DHT22;11197;53.110;8.468;2022-11-04T08:17:26;11.40;99.90
22065;DHT22;11197;53.110;8.468;2022-11-04T08:19:51;11.50;99.90
22065;DHT22;11197;53.110;8.468;2022-11-04T08:22:17;11.40;99.90
22065;DHT22;11197;53.110;8.468;2022-11-04T08:24:43;11.50;99.90
22065;DHT22;11197;53.110;8.468;2022-11-04T08:27:13;11.50;99.90
22065;DHT22;11197;53.110;8.468;2022-11-04T08:29:39;11.50;99.90
22065;DHT22;11197;53.110;8.468;2022-11-04T08:32:06;11.50;99.90
22065;DHT22;11197;53.110;8.468;2022-11-04T08:34:33;11.50;99.90
22065;DHT22;11197;53.110;8.468;2022-11-04T08:36:59;11.50;99.90
22065;DHT22;11197;53.110;8.468;2022-11-04T08:39:25;11.40;99.90
22065;DHT22;11197;53.110;8.468;2022-11-04T08:41:51;11.40;99.90
22065;DHT22;11197;53.110;8.468;2022-11-04T08:44:19;11.40;99.90
22065;DHT22;11197;53.110;8.468;2022-11-04T08:46:46;11.40;99.90
22065;DHT22;11197;53.110;8.468;2022-11-04T08:49:13;11.40;99.90
22065;DHT22;11197;53.110;8.468;2022-11-04T08:51:42;11.40;99.90
22065;DHT22;11197;53.110;8.468;2022-11-04T08:54:09;11.40;99.90
22065;DHT22;11197;53.110;8.468;2022-11-04T08:56:37;11.40;99.90
22065;DHT22;11197;53.110;8.468;2022-11-04T08:59:04;11.40;99.90
22065;DHT22;11197;53.110;8.468;2022-11-04T09:01:33;11.40;99.90
22065;DHT22;11197;53.110;8.468;2022-11-04T09:03:59;11.40;99.90
22065;DHT22;11197;53.110;8.468;2022-11-04T09:06:28;11.40;99.90
22065;DHT22;11197;53.110;8.468;2022-11-04T09:08:55;11.40;99.90
22065;DHT22;11197;53.110;8.468;2022-11-04T09:11:22;11.40;99.90
22065;DHT22;11197;53.110;8.468;2022-11-04T09:13:47;11.50;99.90
22065;DHT22;11197;53.110;8.468;2022-11-04T09:16:14;11.40;99.90
22065;DHT22;11197;53.110;8.468;2022-11-04T09:18:40;11.50;99.90
22065;DHT22;11197;53.110;8.468;2022-11-04T09:21:07;11.50;99.90
22065;DHT22;11197;53.110;8.468;2022-11-04T09:23:34;11.50;99.90
22065;DHT22;11197;53.110;8.468;2022-11-04T09:26:10;11.50;99.90
22065;DHT22;11197;53.110;8.468;2022-11-04T09:28:38;11.40;99.90
22065;DHT22;11197;53.110;8.468;2022-11-04T09:31:11;11.50;99.90
22065;DHT22;11197;53.110;8.468;2022-11-04T09:33:37;11.50;99.90
22065;DHT22;11197;53.110;8.468;2022-11-04T09:36:04;11.40;99.90
22065;DHT22;11197;53.110;8.468;2022-11-04T09:38:30;11.50;99.90
22065;DHT22;11197;53.110;8.468;2022-11-04T09:40:57;11.40;99.90
22065;DHT22;11197;53.110;8.468;2022-11-04T09:46:03;11.50;99.90
22065;DHT22;11197;53.110;8.468;2022-11-04T09:48:33;11.40;99.90
22065;DHT22;11197;53.110;8.468;2022-11-04T09:51:04;11.50;99.90
22065;DHT22;11197;53.110;8.468;2022-11-04T09:53:41;11.50;99.90
22065;DHT22;11197;53.110;8.468;2022-11-04T09:56:22;11.50;99.90
22065;DHT22;11197;53.110;8.468;2022-11-04T09:58:50;11.50;99.90
22065;DHT22;11197;53.110;8.468;2022-11-04T10:01:39;11.50;99.90
22065;DHT22;11197;53.110;8.468;2022-11-04T10:20:32;11.60;99.90
22065;DHT22;11197;53.110;8.468;2022-11-04T10:25:51;11.60;99.90
22065;DHT22;11197;53.110;8.468;2022-11-04T10:28:32;11.70;99.90
22065;DHT22;11197;53.110;8.468;2022-11-04T10:30:59;11.80;99.90
22065;DHT22;11197;53.110;8.468;2022-11-04T10:33:33;11.80;99.90
22065;DHT22;11197;53.110;8.468;2022-11-04T10:36:03;11.80;99.90
22065;DHT22;11197;53.110;8.468;2022-11-04T10:38:49;11.80;99.90
22065;DHT22;11197;53.110;8.468;2022-11-04T10:43:51;12.00;99.90
22065;DHT22;11197;53.110;8.468;2022-11-04T10:49:03;12.00;99.90
22065;DHT22;11197;53.110;8.468;2022-11-04T10:51:30;12.10;99.90
22065;DHT22;11197;53.110;8.468;2022-11-04T10:53:58;12.10;99.90
22065;DHT22;11197;53.110;8.468;2022-11-04T11:00:14;12.20;99.90
22065;DHT22;11197;53.110;8.468;2022-11-04T11:02:09;12.20;99.90
22065;DHT22;11197;53.110;8.468;2022-11-04T11:04:38;12.20;99.90
22065;DHT22;11197;53.110;8.468;2022-11-04T11:07:10;12.20;99.90
22065;DHT22;11197;53.110;8.468;2022-11-04T11:14:39;12.30;99.90
22065;DHT22;11197;53.110;8.468;2022-11-04T11:20:01;12.30;99.90
22065;DHT22;11197;53.110;8.468;2022-11-04T11:22:46;12.30;99.90
22065;DHT22;11197;53.110;8.468;2022-11-04T11:25:23;12.30;99.90
22065;DHT22;11197;53.110;8.468;2022-11-04T11:27:53;12.30;99.90
22065;DHT22;11197;53.110;8.468;2022-11-04T11:31:15;12.30;99.90
22065;DHT22;11197;53.110;8.468;2022-11-04T11:33:23;12.30;99.90
22065;DHT22;11197;53.110;8.468;2022-11-04T11:41:27;12.30;99.90
22065;DHT22;11197;53.110;8.468;2022-11-04T11:44:46;12.30;99.90
22065;DHT22;11197;53.110;8.468;2022-11-04T11:46:55;12.30;99.90
22065;DHT22;11197;53.110;8.468;2022-11-04T11:49:25;12.20;99.90
22065;DHT22;11197;53.110;8.468;2022-11-04T11:51:54;12.30;99.90
22065;DHT22;11197;53.110;8.468;2022-11-04T11:54:32;12.20;99.90
22065;DHT22;11197;53.110;8.468;2022-11-04T11:57:03;12.20;99.90
22065;DHT22;11197;53.110;8.468;2022-11-04T11:59:50;12.20;99.90
22065;DHT22;11197;53.110;8.468;2022-11-04T12:05:09;12.20;99.90
22065;DHT22;11197;53.110;8.468;2022-11-04T12:07:55;12.20;99.90
22065;DHT22;11197;53.110;8.468;2022-11-04T12:13:07;12.20;99.90
22065;DHT22;11197;53.110;8.468;2022-11-04T12:18:48;12.20;99.90
22065;DHT22;11197;53.110;8.468;2022-11-04T12:21:21;12.20;99.90
22065;DHT22;11197;53.110;8.468;2022-11-04T12:37:30;12.20;99.90
22065;DHT22;11197;53.110;8.468;2022-11-04T12:43:16;12.30;99.90
22065;DHT22;11197;53.110;8.468;2022-11-04T12:51:13;12.30;99.90
22065;DHT22;11197;53.110;8.468;2022-11-04T12:56:38;12.30;99.90
22065;DHT22;11197;53.110;8.468;2022-11-04T13:01:40;12.30;99.90
22065;DHT22;11197;53.110;8.468;2022-11-04T13:04:17;12.40;99.90
22065;DHT22;11197;53.110;8.468;2022-11-04T13:09:18;12.30;99.90
22065;DHT22;11197;53.110;8.468;2022-11-04T13:11:56;12.40;99.90
22065;DHT22;11197;53.110;8.468;2022-11-04T13:14:26;12.40;99.90
22065;DHT22;11197;53.110;8.468;2022-11-04T13:17:05;12.40;99.90
22065;DHT22;11197;53.110;8.468;2022-11-04T13:19:52;12.50;99.90
22065;DHT22;11197;53.110;8.468;2022-11-04T13:22:28;12.50;99.90
22065;DHT22;11197;53.110;8.468;2022-11-04T13:27:46;12.60;99.90
22065;DHT22;11197;53.110;8.468;2022-11-04T13:38:15;12.70;99.90
22065;DHT22;11197;53.110;8.468;2022-11-04T13:43:35;12.80;99.90
22065;DHT22;11197;53.110;8.468;2022-11-04T13:48:33;12.70;99.90
22065;DHT22;11197;53.110;8.468;2022-11-04T13:51:06;12.70;99.90
22065;DHT22;11197;53.110;8.468;2022-11-04T13:53:43;12.70;99.90
22065;DHT22;11197;53.110;8.468;2022-11-04T13:56:19;12.70;99.90
22065;DHT22;11197;53.110;8.468;2022-11-04T13:58:51;12.70;99.90
22065;DHT22;11197;53.110;8.468;2022-11-04T14:09:34;12.70;99.90
22065;DHT22;11197;53.110;8.468;2022-11-04T14:14:36;12.70;99.90
22065;DHT22;11197;53.110;8.468;2022-11-04T14:17:03;12.70;99.90
22065;DHT22;11197;53.110;8.468;2022-11-04T14:22:20;12.70;99.90
22065;DHT22;11197;53.110;8.468;2022-11-04T14:25:29;12.80;99.90
22065;DHT22;11197;53.110;8.468;2022-11-04T14:27:38;12.80;99.90
22065;DHT22;11197;53.110;8.468;2022-11-04T14:30:05;12.70;99.90
22065;DHT22;11197;53.110;8.468;2022-11-04T14:32:36;12.70;99.90
22065;DHT22;11197;53.110;8.468;2022-11-04T14:35:05;12.70;99.90
22065;DHT22;11197;53.110;8.468;2022-11-04T14:37:34;12.70;99.90
22065;DHT22;11197;53.110;8.468;2022-11-04T14:40:03;12.70;99.90
22065;DHT22;11197;53.110;8.468;2022-11-04T14:42:44;12.70;99.90
22065;DHT22;11197;53.110;8.468;2022-11-04T14:45:15;12.60;99.90
22065;DHT22;11197;53.110;8.468;2022-11-04T14:47:42;12.70;99.90
22065;DHT22;11197;53.110;8.468;2022-11-04T14:50:16;12.60;99.90
22065;DHT22;11197;53.110;8.468;2022-11-04T14:55:15;12.60;99.90
22065;DHT22;11197;53.110;8.468;2022-11-04T15:02:46;12.50;99.90
22065;DHT22;11197;53.110;8.468;2022-11-04T15:05:25;12.50;99.90
22065;DHT22;11197;53.110;8.468;2022-11-04T15:07:52;12.50;99.90
22065;DHT22;11197;53.110;8.468;2022-11-04T15:10:20;12.50;99.90
22065;DHT22;11197;53.110;8.468;2022-11-04T15:12:46;12.50;99.90
22065;DHT22;11197;53.110;8.468;2022-11-04T15:17:51;12.50;99.90
22065;DHT22;11197;53.110;8.468;2022-11-04T15:20:22;12.50;99.90
22065;DHT22;11197;53.110;8.468;2022-11-04T15:22:49;12.50;99.90
22065;DHT22;11197;53.110;8.468;2022-11-04T15:25:15;12.50;99.90
22065;DHT22;11197;53.110;8.468;2022-11-04T15:27:45;12.40;99.90
22065;DHT22;11197;53.110;8.468;2022-11-04T15:30:24;12.40;99.90
22065;DHT22;11197;53.110;8.468;2022-11-04T15:32:58;12.50;99.90
22065;DHT22;11197;53.110;8.468;2022-11-04T15:35:25;12.40;99.90
22065;DHT22;11197;53.110;8.468;2022-11-04T15:37:51;12.40;99.90
22065;DHT22;11197;53.110;8.468;2022-11-04T15:40:18;12.40;99.90
22065;DHT22;11197;53.110;8.468;2022-11-04T15:42:45;12.40;99.90
22065;DHT22;11197;53.110;8.468;2022-11-04T15:45:54;12.40;99.90
22065;DHT22;11197;53.110;8.468;2022-11-04T15:50:50;12.40;99.90
22065;DHT22;11197;53.110;8.468;2022-11-04T15:53:16;12.40;99.90
22065;DHT22;11197;53.110;8.468;2022-11-04T15:55:43;12.40;99.90
22065;DHT22;11197;53.110;8.468;2022-11-04T15:58:11;12.40;99.90
22065;DHT22;11197;53.110;8.468;2022-11-04T16:00:38;12.30;99.90
22065;DHT22;11197;53.110;8.468;2022-11-04T16:03:04;12.30;99.90
22065;DHT22;11197;53.110;8.468;2022-11-04T16:05:32;12.30;99.90
22065;DHT22;11197;53.110;8.468;2022-11-04T16:10:42;12.30;99.90
22065;DHT22;11197;53.110;8.468;2022-11-04T16:15:52;12.20;99.90
22065;DHT22;11197;53.110;8.468;2022-11-04T16:21:24;12.20;99.90
22065;DHT22;11197;53.110;8.468;2022-11-04T16:23:49;12.10;99.90
22065;DHT22;11197;53.110;8.468;2022-11-04T16:26:15;12.10;99.90
22065;DHT22;11197;53.110;8.468;2022-11-04T16:28:42;12.10;99.90
22065;DHT22;11197;53.110;8.468;2022-11-04T16:31:22;12.00;99.90
22065;DHT22;11197;53.110;8.468;2022-11-04T16:33:49;12.00;99.90
22065;DHT22;11197;53.110;8.468;2022-11-04T16:36:15;11.90;99.90
22065;DHT22;11197;53.110;8.468;2022-11-04T16:38:55;11.90;99.90
22065;DHT22;11197;53.110;8.468;2022-11-04T16:41:21;11.90;99.90
22065;DHT22;11197;53.110;8.468;2022-11-04T16:43:48;11.80;99.90
22065;DHT22;11197;53.110;8.468;2022-11-04T16:46:14;11.70;99.90
22065;DHT22;11197;53.110;8.468;2022-11-04T16:48:40;11.70;99.90
22065;DHT22;11197;53.110;8.468;2022-11-04T16:51:09;11.70;99.90
22065;DHT22;11197;53.110;8.468;2022-11-04T16:53:35;12.00;99.90
22065;DHT22;11197;53.110;8.468;2022-11-04T16:56:01;12.10;99.90
22065;DHT22;11197;53.110;8.468;2022-11-04T16:58:27;12.10;99.90
22065;DHT22;11197;53.110;8.468;2022-11-04T17:00:52;12.10;99.90
22065;DHT22;11197;53.110;8.468;2022-11-04T17:03:19;12.10;99.90
22065;DHT22;11197;53.110;8.468;2022-11-04T17:05:48;12.00;99.90
22065;DHT22;11197;53.110;8.468;2022-11-04T17:08:14;11.90;99.90
22065;DHT22;11197;53.110;8.468;2022-11-04T17:10:40;11.80;99.90
22065;DHT22;11197;53.110;8.468;2022-11-04T17:13:07;11.70;99.90
22065;DHT22;11197;53.110;8.468;2022-11-04T17:15:32;11.60;99.90
22065;DHT22;11197;53.110;8.468;2022-11-04T17:17:58;11.60;99.90
22065;DHT22;11197;53.110;8.468;2022-11-04T17:20:24;11.50;99.90
22065;DHT22;11197;53.110;8.468;2022-11-04T17:22:50;11.40;99.90
22065;DHT22;11197;53.110;8.468;2022-11-04T17:25:21;11.40;99.90
22065;DHT22;11197;53.110;8.468;2022-11-04T17:27:47;11.40;99.90
22065;DHT22;11197;53.110;8.468;2022-11-04T17:30:14;11.30;99.90
22065;DHT22;11197;53.110;8.468;2022-11-04T17:32:42;11.30;99.90
22065;DHT22;11197;53.110;8.468;2022-11-04T17:35:09;11.30;99.90
22065;DHT22;11197;53.110;8.468;2022-11-04T17:37:35;11.20;99.90
22065;DHT22;11197;53.110;8.468;2022-11-04T17:40:00;11.20;99.90
22065;DHT22;11197;53.110;8.468;2022-11-04T17:42:26;11.20;99.90
22065;DHT22;11197;53.110;8.468;2022-11-04T17:45:11;11.10;99.90
22065;DHT22;11197;53.110;8.468;2022-11-04T17:47:36;11.10;99.90
22065;DHT22;11197;53.110;8.468;2022-11-04T17:50:05;11.20;99.90
22065;DHT22;11197;53.110;8.468;2022-11-04T17:52:33;11.10;99.90
22065;DHT22;11197;53.110;8.468;2022-11-04T17:54:59;11.10;99.90
22065;DHT22;11197;53.110;8.468;2022-11-04T17:57:24;11.10;99.90
22065;DHT22;11197;53.110;8.468;2022-11-04T17:59:50;11.00;99.90
22065;DHT22;11197;53.110;8.468;2022-11-04T18:02:16;11.00;99.90
22065;DHT22;11197;53.110;8.468;2022-11-04T18:04:44;11.00;99.90
22065;DHT22;11197;53.110;8.468;2022-11-04T18:07:09;11.00;99.90
22065;DHT22;11197;53.110;8.468;2022-11-04T18:09:35;11.00;99.90
22065;DHT22;11197;53.110;8.468;2022-11-04T18:12:01;11.00;99.90
22065;DHT22;11197;53.110;8.468;2022-11-04T18:14:45;11.00;99.90
22065;DHT22;11197;53.110;8.468;2022-11-04T18:17:11;11.00;99.90
22065;DHT22;11197;53.110;8.468;2022-11-04T18:19:37;10.90;99.90
22065;DHT22;11197;53.110;8.468;2022-11-04T18:22:03;10.90;99.90
22065;DHT22;11197;53.110;8.468;2022-11-04T18:24:28;10.90;99.90
22065;DHT22;11197;53.110;8.468;2022-11-04T18:26:56;10.80;99.90
22065;DHT22;11197;53.110;8.468;2022-11-04T18:29:22;10.80;99.90
22065;DHT22;11197;53.110;8.468;2022-11-04T18:31:47;10.70;99.90
22065;DHT22;11197;53.110;8.468;2022-11-04T18:34:14;10.60;99.90
22065;DHT22;11197;53.110;8.468;2022-11-04T18:36:42;10.60;99.90
22065;DHT22;11197;53.110;8.468;2022-11-04T18:39:10;10.50;99.90
22065;DHT22;11197;53.110;8.468;2022-11-04T18:41:36;10.50;99.90
22065;DHT22;11197;53.110;8.468;2022-11-04T18:44:04;10.40;99.90
22065;DHT22;11197;53.110;8.468;2022-11-04T18:46:30;10.40;99.90